createdAt,value
2024-04-24T00:02:16.018Z,99209.38
2024-04-24T00:07:19.417Z,99200.22
2024-04-24T00:12:22.693Z,99192.03
2024-04-24T00:17:26.173Z,99198.38
2024-04-24T00:22:29.647Z,99189.50
2024-04-24T00:27:32.922Z,99189.97
2024-04-24T00:32:36.244Z,99170.28
2024-04-24T00:37:41.520Z,99163.81
2024-04-24T00:42:45.170Z,99155.31
2024-04-24T00:47:50.161Z,99151.06
2024-04-24T00:52:53.645Z,99149.31
2024-04-24T00:57:58.096Z,99145.47
2024-04-24T01:03:03.485Z,99144.16
2024-04-24T01:08:06.937Z,99146.56
2024-04-24T01:13:10.194Z,99130.56
2024-04-24T01:18:14.914Z,99126.81
2024-04-24T01:23:33.426Z,99127.34
2024-04-24T01:28:36.817Z,99122.09
2024-04-24T01:33:40.173Z,99110.41
2024-04-24T01:38:43.613Z,99113.56
2024-04-24T01:43:46.954Z,99102.34
2024-04-24T01:48:50.476Z,99096.84
2024-04-24T01:53:58.309Z,99088.22
2024-04-24T01:59:01.556Z,99083.03
2024-04-24T02:04:04.992Z,99073.53
2024-04-24T02:09:08.304Z,99071.13
2024-04-24T02:14:11.923Z,99067.31
2024-04-24T02:19:21.578Z,99061.53
2024-04-24T02:24:47.604Z,99053.91
2024-04-24T02:30:00.603Z,99054.13
2024-04-24T02:35:06.860Z,99048.59
2024-04-24T02:40:10.664Z,99048.38
2024-04-24T02:45:14.158Z,99037.28
2024-04-24T02:50:17.378Z,99029.38
2024-04-24T02:55:20.924Z,99020.91
2024-04-24T03:00:24.216Z,99021.25
2024-04-24T03:05:27.567Z,99018.75
2024-04-24T03:10:30.880Z,99011.94
2024-04-24T03:15:34.350Z,99010.25
2024-04-24T03:20:37.770Z,99004.09
2024-04-24T03:25:41.341Z,98998.38
2024-04-24T03:30:44.546Z,98986.78
2024-04-24T03:35:47.867Z,98974.38
2024-04-24T03:40:51.319Z,98976.34
2024-04-24T03:45:54.660Z,98983.66
2024-04-24T03:50:57.906Z,98973.03
2024-04-24T03:56:01.162Z,98981.25
2024-04-24T04:01:04.808Z,98971.50
2024-04-24T04:06:08.218Z,98967.94
2024-04-24T04:11:11.436Z,98968.78
2024-04-24T04:16:14.716Z,98965.53
2024-04-24T04:21:17.893Z,98967.13
2024-04-24T04:26:21.374Z,98960.81
2024-04-24T04:31:24.778Z,98951.75
2024-04-24T04:36:28.003Z,98957.00
2024-04-24T04:41:31.830Z,98950.56
2024-04-24T04:46:35.247Z,98935.97
2024-04-24T04:51:38.554Z,98933.31
2024-04-24T04:56:41.842Z,98930.31
2024-04-24T05:01:45.136Z,98925.31
2024-04-24T05:06:48.611Z,98918.00
2024-04-24T05:11:52.181Z,98917.38
2024-04-24T05:16:55.876Z,98917.97
2024-04-24T05:21:59.271Z,98917.47
2024-04-24T05:27:21.325Z,98914.63
2024-04-24T05:32:24.772Z,98905.63
2024-04-24T05:37:28.000Z,98901.44
2024-04-24T05:42:31.426Z,98898.44
2024-04-24T05:47:36.185Z,98897.06
2024-04-24T05:52:39.757Z,98901.13
2024-04-24T05:57:43.202Z,98898.47
2024-04-24T06:02:46.671Z,98895.97
2024-04-24T06:07:50.037Z,98897.88
2024-04-24T06:12:53.407Z,98894.59
2024-04-24T06:17:58.138Z,98895.47
2024-04-24T06:23:02.165Z,98884.75
2024-04-24T06:28:05.957Z,98894.69
2024-04-24T06:33:09.358Z,98889.22
2024-04-24T06:38:12.781Z,98887.25
2024-04-24T06:43:16.321Z,98881.91
2024-04-24T06:48:19.917Z,98876.88
2024-04-24T06:53:23.392Z,98874.03
2024-04-24T06:58:27.270Z,98868.66
2024-04-24T07:03:30.738Z,98865.88
2024-04-24T07:08:34.401Z,98856.44
2024-04-24T07:13:37.813Z,98849.94
2024-04-24T07:18:41.284Z,98845.50
2024-04-24T07:23:44.979Z,98841.72
2024-04-24T07:28:50.079Z,98833.25
2024-04-24T07:33:53.498Z,98833.94
2024-04-24T07:38:56.797Z,98831.16
2024-04-24T07:44:00.260Z,98827.31
2024-04-24T07:49:03.718Z,98826.09
2024-04-24T07:54:07.383Z,98819.06
2024-04-24T07:59:12.162Z,98814.06
2024-04-24T08:04:15.515Z,98815.66
2024-04-24T08:09:19.293Z,98813.72
2024-04-24T08:14:22.737Z,98803.72
2024-04-24T08:19:26.074Z,98805.91
2024-04-24T08:24:29.460Z,98801.41
2024-04-24T08:29:33.104Z,98807.94
2024-04-24T08:34:36.556Z,98794.97
2024-04-24T08:39:39.988Z,98805.22
2024-04-24T08:44:44.617Z,98793.50
2024-04-24T08:49:49.534Z,98789.31
2024-04-24T08:54:59.636Z,98798.25
2024-04-24T09:00:05.006Z,98794.63
2024-04-24T09:05:12.677Z,98791.59
2024-04-24T09:10:16.276Z,98792.88
2024-04-24T09:15:20.226Z,98788.44
2024-04-24T09:20:26.005Z,98782.22
2024-04-24T09:25:29.645Z,98776.19
2024-04-24T09:30:33.239Z,98782.19
2024-04-24T09:35:36.858Z,98774.19
2024-04-24T09:40:41.445Z,98771.59
2024-04-24T09:45:44.824Z,98770.41
2024-04-24T09:50:51.237Z,98770.03
2024-04-24T09:56:13.409Z,98769.22
2024-04-24T10:01:20.643Z,98755.88
2024-04-24T10:06:27.018Z,98760.13
2024-04-24T10:11:39.665Z,98756.75
2024-04-24T10:16:44.024Z,98756.91
2024-04-24T10:21:48.348Z,98765.53
2024-04-24T10:26:53.193Z,98757.84
2024-04-24T10:31:59.654Z,98752.91
2024-04-24T10:37:03.078Z,98753.69
2024-04-24T10:42:07.611Z,98751.72
2024-04-24T10:47:11.527Z,98752.38
2024-04-24T10:52:15.742Z,98745.94
2024-04-24T10:57:19.390Z,98749.66
2024-04-24T11:02:23.087Z,98758.72
2024-04-24T11:07:37.921Z,98745.56
2024-04-24T11:12:42.998Z,98749.09
2024-04-24T11:17:46.913Z,98738.97
2024-04-24T11:22:50.644Z,98734.41
2024-04-24T11:27:53.963Z,98726.41
2024-04-24T11:32:57.933Z,98726.19
2024-04-24T11:38:02.358Z,98722.44
2024-04-24T11:43:05.853Z,98717.72
2024-04-24T11:48:11.254Z,98715.63
2024-04-24T11:53:16.133Z,98717.44
2024-04-24T11:58:19.775Z,98716.41
2024-04-24T12:03:23.236Z,98704.09
2024-04-24T12:08:28.768Z,98706.84
2024-04-24T12:13:34.441Z,98691.53
2024-04-24T12:18:37.844Z,98699.16
2024-04-24T12:23:41.793Z,98692.53
2024-04-24T12:28:45.260Z,98687.72
2024-04-24T12:33:48.609Z,98690.72
2024-04-24T12:38:54.045Z,98682.66
2024-04-24T12:43:57.536Z,98679.50
2024-04-24T12:49:03.988Z,98675.16
2024-04-24T12:54:07.434Z,98669.94
2024-04-24T12:59:10.887Z,98663.91
2024-04-24T13:04:14.036Z,98673.88
2024-04-24T13:09:18.333Z,98665.94
2024-04-24T13:14:21.695Z,98664.81
2024-04-24T13:19:25.163Z,98658.31
2024-04-24T13:24:28.698Z,98666.53
2024-04-24T13:29:31.851Z,98658.56
2024-04-24T13:34:35.675Z,98663.13
2024-04-24T13:39:40.411Z,98655.97
2024-04-24T13:44:44.805Z,98654.16
2024-04-24T13:49:48.125Z,98650.03
2024-04-24T13:54:51.437Z,98651.97
2024-04-24T13:59:54.759Z,98650.63
2024-04-24T14:04:58.135Z,98649.06
2024-04-24T14:10:01.730Z,98649.09
2024-04-24T14:15:10.390Z,98646.44
2024-04-24T14:20:13.985Z,98646.13
2024-04-24T14:25:17.401Z,98646.72
2024-04-24T14:30:20.821Z,98642.13
2024-04-24T14:35:24.279Z,98637.84
2024-04-24T14:40:27.759Z,98636.75
2024-04-24T14:45:31.785Z,98632.47
2024-04-24T14:50:35.340Z,98631.25
2024-04-24T14:55:40.959Z,98620.84
2024-04-24T15:00:45.575Z,98626.13
2024-04-24T15:05:49.040Z,98636.56
2024-04-24T15:10:52.511Z,98623.94
2024-04-24T15:15:56.528Z,98625.34
2024-04-24T15:20:59.853Z,98622.03
2024-04-24T15:26:03.492Z,98627.41
2024-04-24T15:31:08.030Z,98634.13
2024-04-24T15:36:12.980Z,98628.41
2024-04-24T15:41:16.561Z,98621.31
2024-04-24T15:46:20.145Z,98623.44
2024-04-24T15:51:23.837Z,98618.34
2024-04-24T15:56:27.200Z,98618.84
2024-04-24T16:01:30.400Z,98617.19
2024-04-24T16:06:33.770Z,98614.47
2024-04-24T16:11:37.118Z,98609.00
2024-04-24T16:16:40.517Z,98612.69
2024-04-24T16:21:44.235Z,98612.09
2024-04-24T16:26:47.560Z,98599.56
2024-04-24T16:31:50.951Z,98605.69
2024-04-24T16:36:54.360Z,98601.94
2024-04-24T16:41:57.851Z,98609.22
2024-04-24T16:47:01.350Z,98604.38
2024-04-24T16:52:10.128Z,98596.25
2024-04-24T16:57:16.187Z,98600.13
2024-04-24T17:02:19.871Z,98598.66
2024-04-24T17:07:23.580Z,98608.97
2024-04-24T17:12:26.938Z,98603.59
2024-04-24T17:17:30.972Z,98605.97
2024-04-24T17:22:34.762Z,98612.16
2024-04-24T17:27:38.310Z,98619.25
2024-04-24T17:32:41.774Z,98618.34
2024-04-24T17:37:45.296Z,98621.59
2024-04-24T17:42:49.617Z,98621.84
2024-04-24T17:47:53.244Z,98627.50
2024-04-24T17:53:00.559Z,98614.06
2024-04-24T17:58:05.316Z,98620.53
2024-04-24T18:03:11.174Z,98623.94
2024-04-24T18:08:16.932Z,98636.22
2024-04-24T18:13:20.466Z,98636.72
2024-04-24T18:18:24.118Z,98637.75
2024-04-24T18:23:28.155Z,98639.66
2024-04-24T18:28:32.979Z,98642.63
2024-04-24T18:33:36.918Z,98648.28
2024-04-24T18:38:41.402Z,98657.66
2024-04-24T18:43:45.739Z,98658.38
2024-04-24T18:48:51.450Z,98661.31
2024-04-24T18:53:58.791Z,98666.34
2024-04-24T18:59:05.776Z,98668.56
2024-04-24T19:04:14.080Z,98672.72
2024-04-24T19:09:18.353Z,98672.59
2024-04-24T19:14:23.047Z,98679.28
2024-04-24T19:19:28.026Z,98683.31
2024-04-24T19:24:32.017Z,98675.44
2024-04-24T19:29:37.277Z,98671.06
2024-04-24T19:34:43.095Z,98666.78
2024-04-24T19:39:48.592Z,98671.34
2024-04-24T19:44:53.705Z,98683.06
2024-04-24T19:49:57.472Z,98679.38
2024-04-24T19:55:03.397Z,98676.34
2024-04-24T20:00:08.401Z,98687.66
2024-04-24T20:05:11.862Z,98682.00
2024-04-24T20:10:15.671Z,98678.72
2024-04-24T20:15:20.140Z,98674.50
2024-04-24T20:20:23.811Z,98679.03
2024-04-24T20:25:27.203Z,98680.44
2024-04-24T20:30:30.666Z,98682.75
2024-04-24T20:35:36.237Z,98678.28
2024-04-24T20:40:39.783Z,98673.44
2024-04-24T20:45:43.181Z,98676.97
2024-04-24T20:50:46.527Z,98674.94
2024-04-24T20:55:50.130Z,98680.00
2024-04-24T21:00:53.756Z,98677.63
2024-04-24T21:05:57.232Z,98673.00
2024-04-24T21:11:01.565Z,98677.22
2024-04-24T21:16:12.260Z,98677.47
2024-04-24T21:21:15.742Z,98672.34
2024-04-24T21:26:19.324Z,98676.25
2024-04-24T21:31:22.726Z,98667.88
2024-04-24T21:36:26.383Z,98663.09
2024-04-24T21:41:29.709Z,98665.84
2024-04-24T21:46:32.956Z,98657.97
2024-04-24T21:51:36.227Z,98663.56
2024-04-24T21:56:39.975Z,98663.97
2024-04-24T22:01:44.703Z,98658.53
2024-04-24T22:06:47.988Z,98673.31
2024-04-24T22:11:51.482Z,98653.84
2024-04-24T22:16:54.840Z,98662.09
2024-04-24T22:21:58.233Z,98654.13
2024-04-24T22:27:01.527Z,98654.31
2024-04-24T22:32:04.915Z,98653.63
2024-04-24T22:37:09.257Z,98650.63
2024-04-24T22:42:15.923Z,98643.41
2024-04-24T22:47:19.470Z,98645.28
2024-04-24T22:52:22.820Z,98646.34
2024-04-24T22:57:26.078Z,98642.31
2024-04-24T23:02:31.636Z,98638.03
2024-04-24T23:07:34.991Z,98635.81
2024-04-24T23:12:38.487Z,98645.22
2024-04-24T23:17:41.986Z,98627.66
2024-04-24T23:22:46.389Z,98636.38
2024-04-24T23:27:50.988Z,98630.66
2024-04-24T23:32:55.766Z,98628.22
2024-04-24T23:37:59.308Z,98621.41
2024-04-24T23:43:02.745Z,98629.47
2024-04-24T23:48:06.750Z,98624.53
2024-04-24T23:53:11.171Z,98624.81
2024-04-24T23:58:15.557Z,98622.00
